Terminal Aerodrome Forecast
Issued by NWS Twin Cities, MN

Home | Current Version | Previous Version | Text Only | Print | Product List | Glossary On
Versions: 1 2 3 4 5 6 7 8 9 10 11 12 13 14
000
FTUS43 KMPX 190500
TAFSTC
TAF
KSTC 190520Z 1906/2006 16004KT P6SM SCT025 OVC080
     FM190800 16006KT P6SM OVC025
     FM191600 16008KT P6SM OVC018=

USA.gov is the U.S. government's official web portal to all federal, state and local government web resources and services.